createdAt,value
2023-01-02T00:00:36.639Z,63.73
2023-01-02T00:01:36.624Z,64.29
2023-01-02T00:02:36.885Z,67.56
2023-01-02T00:03:36.725Z,64.23
2023-01-02T00:04:36.564Z,61.89
2023-01-02T00:05:36.569Z,59.30
2023-01-02T00:06:36.546Z,62.50
2023-01-02T00:07:36.561Z,62.03
2023-01-02T00:08:36.520Z,61.80
2023-01-02T00:09:36.484Z,63.46
2023-01-02T00:10:36.483Z,64.45
2023-01-02T00:11:36.455Z,63.55
2023-01-02T00:12:36.467Z,62.35
2023-01-02T00:13:36.415Z,63.95
2023-01-02T00:14:36.405Z,60.90
2023-01-02T00:15:36.395Z,63.19
2023-01-02T00:16:36.400Z,66.60
2023-01-02T00:17:36.391Z,65.24
2023-01-02T00:18:36.347Z,62.42
2023-01-02T00:19:36.330Z,66.88
2023-01-02T00:20:36.349Z,63.31
2023-01-02T00:21:36.304Z,64.54
2023-01-02T00:22:36.298Z,61.70
2023-01-02T00:23:36.272Z,65.30
2023-01-02T00:24:36.230Z,63.30
2023-01-02T00:25:36.225Z,62.12
2023-01-02T00:26:36.199Z,61.11
2023-01-02T00:27:36.228Z,63.53
2023-01-02T00:28:36.178Z,63.65
2023-01-02T00:29:36.148Z,64.40
2023-01-02T00:30:38.616Z,62.88
2023-01-02T00:31:37.142Z,62.68
2023-01-02T00:32:36.128Z,63.26
2023-01-02T00:33:36.083Z,64.42
2023-01-02T00:34:36.075Z,64.87
2023-01-02T00:35:36.081Z,62.58
2023-01-02T00:36:36.040Z,65.45
2023-01-02T00:37:36.047Z,63.90
2023-01-02T00:38:38.136Z,65.24
2023-01-02T00:39:37.013Z,65.89
2023-01-02T00:40:35.983Z,63.49
2023-01-02T00:41:35.967Z,60.09
2023-01-02T00:42:35.973Z,62.07
2023-01-02T00:43:35.946Z,63.09
2023-01-02T00:44:35.889Z,60.93
2023-01-02T00:45:35.902Z,63.11
2023-01-02T00:46:36.903Z,64.95
2023-01-02T00:47:35.956Z,62.63
2023-01-02T00:48:35.830Z,62.85
2023-01-02T00:49:35.819Z,61.32
2023-01-02T00:50:35.800Z,65.09
2023-01-02T00:51:35.778Z,61.80
2023-01-02T00:52:35.802Z,59.85
2023-01-02T00:53:35.756Z,63.03
2023-01-02T00:54:35.742Z,63.63
2023-01-02T00:55:35.725Z,62.74
2023-01-02T00:56:35.702Z,66.81
2023-01-02T00:57:35.720Z,67.61
2023-01-02T00:58:35.670Z,63.58
2023-01-02T00:59:35.647Z,58.73
2023-01-02T01:00:35.702Z,59.26
2023-01-02T01:01:35.914Z,64.60
2023-01-02T01:02:35.794Z,62.98
2023-01-02T01:03:35.639Z,61.74
2023-01-02T01:04:35.596Z,63.26
2023-01-02T01:05:35.573Z,64.16
2023-01-02T01:06:35.532Z,63.99
2023-01-02T01:07:35.578Z,63.31
2023-01-02T01:08:36.520Z,62.73
2023-01-02T01:09:35.489Z,61.00
2023-01-02T01:10:35.493Z,61.54
2023-01-02T01:11:35.468Z,62.50
2023-01-02T01:12:35.468Z,60.72
2023-01-02T01:13:35.465Z,63.93
2023-01-02T01:14:35.400Z,63.57
2023-01-02T01:15:36.381Z,61.50
2023-01-02T01:16:35.413Z,61.99
2023-01-02T01:17:35.409Z,60.73
2023-01-02T01:18:35.324Z,65.00
2023-01-02T01:19:36.319Z,64.01
2023-01-02T01:20:35.291Z,64.53
2023-01-02T01:21:35.277Z,65.06
2023-01-02T01:22:35.273Z,63.89
2023-01-02T01:23:35.282Z,61.16
2023-01-02T01:24:35.230Z,63.65
2023-01-02T01:25:35.206Z,60.18
2023-01-02T01:26:35.203Z,63.17
2023-01-02T01:27:35.192Z,63.59
2023-01-02T01:28:35.193Z,64.07
2023-01-02T01:29:35.140Z,62.68
2023-01-02T01:30:35.138Z,62.87
2023-01-02T01:31:35.158Z,65.60
2023-01-02T01:32:35.079Z,66.64
2023-01-02T01:33:35.112Z,63.27
2023-01-02T01:34:35.059Z,62.06
2023-01-02T01:35:35.049Z,60.11
2023-01-02T01:36:35.034Z,63.38
2023-01-02T01:37:35.013Z,61.86
2023-01-02T01:38:35.032Z,62.85
2023-01-02T01:39:34.979Z,64.48
2023-01-02T01:40:34.954Z,65.06
2023-01-02T01:41:34.953Z,64.57
2023-01-02T01:42:34.953Z,64.46
2023-01-02T01:43:34.951Z,58.56
2023-01-02T01:44:34.879Z,61.10
2023-01-02T01:45:34.887Z,61.24
2023-01-02T01:46:34.847Z,61.95
2023-01-02T01:47:34.848Z,62.46
2023-01-02T01:48:34.850Z,63.37
2023-01-02T01:49:34.818Z,61.47
2023-01-02T01:50:34.775Z,59.63
2023-01-02T01:51:34.761Z,60.38
2023-01-02T01:52:34.745Z,65.79
2023-01-02T01:53:34.766Z,63.54
2023-01-02T01:54:34.708Z,61.84
2023-01-02T01:55:34.708Z,61.73
2023-01-02T01:56:34.682Z,64.87
2023-01-02T01:57:34.656Z,63.87
2023-01-02T01:58:34.675Z,61.10
2023-01-02T01:59:34.618Z,63.55
2023-01-02T02:00:34.621Z,60.68
2023-01-02T02:01:34.656Z,60.87
2023-01-02T02:02:34.766Z,61.46
2023-01-02T02:03:34.589Z,59.57
2023-01-02T02:04:34.543Z,61.91
2023-01-02T02:05:34.527Z,64.84
2023-01-02T02:06:34.503Z,65.63
2023-01-02T02:07:34.491Z,65.40
2023-01-02T02:08:34.515Z,61.59
2023-01-02T02:09:34.476Z,60.97
2023-01-02T02:10:34.429Z,62.44
2023-01-02T02:11:34.427Z,62.07
2023-01-02T02:12:34.421Z,61.61
2023-01-02T02:13:34.406Z,62.33
2023-01-02T02:14:34.476Z,61.88
2023-01-02T02:15:34.356Z,57.34
2023-01-02T02:16:34.476Z,60.74
2023-01-02T02:17:34.343Z,62.13
2023-01-02T02:18:34.333Z,61.79
2023-01-02T02:19:34.331Z,59.92
2023-01-02T02:20:34.319Z,64.13
2023-01-02T02:21:34.262Z,62.28
2023-01-02T02:22:34.256Z,62.65
2023-01-02T02:23:34.289Z,64.52
2023-01-02T02:24:34.212Z,62.85
2023-01-02T02:25:34.202Z,64.48
2023-01-02T02:26:34.186Z,64.24
2023-01-02T02:27:34.149Z,63.92
2023-01-02T02:28:34.187Z,61.90
2023-01-02T02:29:34.117Z,61.23
2023-01-02T02:30:34.101Z,63.91
2023-01-02T02:31:35.141Z,61.54
2023-01-02T02:32:34.075Z,56.56
2023-01-02T02:33:34.089Z,60.06
2023-01-02T02:34:34.030Z,63.04
2023-01-02T02:35:34.028Z,63.21
2023-01-02T02:36:33.998Z,61.11
2023-01-02T02:37:33.985Z,63.77
2023-01-02T02:38:34.037Z,62.12
2023-01-02T02:39:33.962Z,59.77
2023-01-02T02:40:34.950Z,64.73
2023-01-02T02:41:33.927Z,59.83
2023-01-02T02:42:33.905Z,63.43
2023-01-02T02:43:33.917Z,61.45
2023-01-02T02:44:33.884Z,64.34
2023-01-02T02:45:33.876Z,62.01
2023-01-02T02:46:33.941Z,61.15
2023-01-02T02:47:33.815Z,62.13
2023-01-02T02:48:34.865Z,62.36
2023-01-02T02:49:33.781Z,62.31
2023-01-02T02:50:33.781Z,60.62
2023-01-02T02:51:33.750Z,65.63
2023-01-02T02:52:33.747Z,62.81
2023-01-02T02:53:33.754Z,64.45
2023-01-02T02:54:33.714Z,64.11
2023-01-02T02:55:33.684Z,63.96
2023-01-02T02:56:33.675Z,64.79
2023-01-02T02:57:33.653Z,65.06
2023-01-02T02:58:33.695Z,65.08
2023-01-02T02:59:34.634Z,64.52
2023-01-02T03:00:33.598Z,63.14
2023-01-02T03:01:33.677Z,61.15
2023-01-02T03:02:34.919Z,63.87
2023-01-02T03:03:33.667Z,65.33
2023-01-02T03:04:33.534Z,67.97
2023-01-02T03:05:33.563Z,64.88
2023-01-02T03:06:34.505Z,61.99
2023-01-02T03:07:33.493Z,64.28
2023-01-02T03:08:33.666Z,63.44
2023-01-02T03:09:33.470Z,66.58
2023-01-02T03:10:33.456Z,66.12
2023-01-02T03:11:33.445Z,67.14
2023-01-02T03:12:33.414Z,66.21
2023-01-02T03:13:41.275Z,65.23
2023-01-02T03:14:35.379Z,65.91
2023-01-02T03:15:33.357Z,63.93
2023-01-02T03:16:33.355Z,64.25
2023-01-02T03:17:33.331Z,64.24
2023-01-02T03:18:33.338Z,65.69
2023-01-02T03:19:33.291Z,64.86
2023-01-02T03:20:33.276Z,66.34
2023-01-02T03:21:33.264Z,66.48
2023-01-02T03:22:33.229Z,63.81
2023-01-02T03:23:33.263Z,66.54
2023-01-02T03:24:33.203Z,68.35
2023-01-02T03:25:33.195Z,66.58
2023-01-02T03:26:33.255Z,65.77
2023-01-02T03:27:33.159Z,64.33
2023-01-02T03:28:33.229Z,64.39
2023-01-02T03:29:33.127Z,64.56
2023-01-02T03:30:33.136Z,64.78
2023-01-02T03:31:33.088Z,64.90
2023-01-02T03:32:33.095Z,62.72
2023-01-02T03:33:33.092Z,62.93
2023-01-02T03:34:33.050Z,62.90
2023-01-02T03:35:33.044Z,66.30
2023-01-02T03:36:33.034Z,65.53
2023-01-02T03:37:32.994Z,67.32
2023-01-02T03:38:33.034Z,65.44
2023-01-02T03:40:05.333Z,67.26
2023-01-02T03:40:32.956Z,64.46
2023-01-02T03:41:32.931Z,66.49
2023-01-02T03:42:32.918Z,61.31
2023-01-02T03:43:32.937Z,65.08
2023-01-02T03:44:32.885Z,65.64
2023-01-02T03:45:32.856Z,64.66
2023-01-02T03:46:32.880Z,64.61
2023-01-02T03:47:32.857Z,61.29
2023-01-02T03:48:32.835Z,65.31
2023-01-02T03:49:32.833Z,66.54
2023-01-02T03:50:32.793Z,66.61
2023-01-02T03:51:32.764Z,65.69
2023-01-02T03:52:32.764Z,65.31
2023-01-02T03:53:32.736Z,65.62
2023-01-02T03:54:32.746Z,64.98
2023-01-02T03:55:32.700Z,63.50
2023-01-02T03:56:32.685Z,65.94
2023-01-02T03:57:32.661Z,64.19
2023-01-02T03:58:32.684Z,62.87
2023-01-02T03:59:32.629Z,64.70
2023-01-02T04:00:32.630Z,64.52
2023-01-02T04:01:32.677Z,64.66
2023-01-02T04:02:32.773Z,65.54
2023-01-02T04:03:32.561Z,64.53
2023-01-02T04:04:32.580Z,64.14
2023-01-02T04:05:32.531Z,64.83
2023-01-02T04:06:32.520Z,64.59
2023-01-02T04:07:32.514Z,66.79
2023-01-02T04:08:32.481Z,65.06
2023-01-02T04:09:32.501Z,66.14
2023-01-02T04:10:32.451Z,64.16
2023-01-02T04:11:32.421Z,62.02
2023-01-02T04:12:32.420Z,63.77
2023-01-02T04:13:32.409Z,65.76
2023-01-02T04:14:32.417Z,64.77
2023-01-02T04:15:32.433Z,63.82
2023-01-02T04:16:32.347Z,64.71
2023-01-02T04:17:32.353Z,63.71
2023-01-02T04:18:32.320Z,64.91
2023-01-02T04:19:32.322Z,66.17
2023-01-02T04:20:32.287Z,66.25
2023-01-02T04:21:32.261Z,62.75
2023-01-02T04:22:32.254Z,66.05
2023-01-02T04:23:32.243Z,64.32
2023-01-02T04:24:32.266Z,66.73
2023-01-02T04:25:32.210Z,64.11
2023-01-02T04:26:32.212Z,66.82
2023-01-02T04:27:32.171Z,65.83
2023-01-02T04:28:32.169Z,66.29
2023-01-02T04:29:32.164Z,64.18
2023-01-02T04:30:32.112Z,64.53
2023-01-02T04:31:32.141Z,66.36
2023-01-02T04:32:32.082Z,68.09
2023-01-02T04:33:32.065Z,65.42
2023-01-02T04:34:32.134Z,64.43
2023-01-02T04:35:32.066Z,66.00
2023-01-02T04:36:32.006Z,67.42
2023-01-02T04:37:33.003Z,67.69
2023-01-02T04:38:31.994Z,66.20
2023-01-02T04:39:32.002Z,63.16
2023-01-02T04:40:31.953Z,65.74
2023-01-02T04:41:31.949Z,62.88
2023-01-02T04:42:31.910Z,66.41
2023-01-02T04:43:31.901Z,66.59
2023-01-02T04:44:31.920Z,66.07
2023-01-02T04:45:31.861Z,66.25
2023-01-02T04:46:31.919Z,67.19
2023-01-02T04:47:31.854Z,66.65
2023-01-02T04:48:31.833Z,69.02
2023-01-02T04:49:31.843Z,66.26
2023-01-02T04:50:31.799Z,66.18
2023-01-02T04:51:31.800Z,67.84
2023-01-02T04:52:36.974Z,66.80
2023-01-02T04:53:33.730Z,68.99
2023-01-02T04:54:31.744Z,63.86
2023-01-02T04:55:31.694Z,67.26
2023-01-02T04:56:31.690Z,66.40
2023-01-02T04:57:31.660Z,66.77
2023-01-02T04:58:31.665Z,67.08
2023-01-02T04:59:31.691Z,65.26
2023-01-02T05:00:31.611Z,64.08
2023-01-02T05:01:31.733Z,63.66
2023-01-02T05:02:31.718Z,65.30
2023-01-02T05:03:31.617Z,68.89
2023-01-02T05:04:31.582Z,68.34
2023-01-02T05:05:31.624Z,63.68
2023-01-02T05:06:31.517Z,64.85
2023-01-02T05:07:31.508Z,65.25
2023-01-02T05:08:31.472Z,66.15
2023-01-02T05:09:31.499Z,69.10
2023-01-02T05:10:31.444Z,66.02
2023-01-02T05:11:32.427Z,66.28
2023-01-02T05:12:31.424Z,66.22
2023-01-02T05:13:31.398Z,65.85
2023-01-02T05:14:31.409Z,68.89
2023-01-02T05:15:31.365Z,65.94
2023-01-02T05:16:31.339Z,65.76
2023-01-02T05:17:31.327Z,65.43
2023-01-02T05:18:31.322Z,64.93
2023-01-02T05:19:31.344Z,66.79
2023-01-02T05:20:31.283Z,67.39
2023-01-02T05:21:31.259Z,67.75
2023-01-02T05:22:31.258Z,67.93
2023-01-02T05:23:31.240Z,67.60
2023-01-02T05:24:31.241Z,66.53
2023-01-02T05:25:31.194Z,66.54
2023-01-02T05:26:31.268Z,66.98
2023-01-02T05:27:31.164Z,67.14
2023-01-02T05:28:35.188Z,66.46
2023-01-02T05:29:33.172Z,66.52
2023-01-02T05:30:31.128Z,67.93
2023-01-02T05:31:31.206Z,66.32
2023-01-02T05:32:31.107Z,67.40
2023-01-02T05:33:31.069Z,66.08
2023-01-02T05:34:31.080Z,67.47
2023-01-02T05:35:33.399Z,67.83
2023-01-02T05:36:32.052Z,67.10
2023-01-02T05:37:31.004Z,64.74
2023-01-02T05:38:30.978Z,65.05
2023-01-02T05:39:31.007Z,66.55
2023-01-02T05:40:30.974Z,65.49
2023-01-02T05:41:30.935Z,66.33
2023-01-02T05:42:30.935Z,66.43
2023-01-02T05:43:30.896Z,67.69
2023-01-02T05:44:30.904Z,68.77
2023-01-02T05:45:30.868Z,67.89
2023-01-02T05:46:30.876Z,68.27
2023-01-02T05:47:30.838Z,68.10
2023-01-02T05:48:30.844Z,68.47
2023-01-02T05:49:30.825Z,67.84
2023-01-02T05:50:30.783Z,67.04
2023-01-02T05:51:30.776Z,65.63
2023-01-02T05:52:30.752Z,66.41
2023-01-02T05:53:30.728Z,67.74
2023-01-02T05:54:30.746Z,66.63
2023-01-02T05:55:30.702Z,67.60
2023-01-02T05:56:30.688Z,66.18
2023-01-02T05:57:30.672Z,67.13
2023-01-02T05:58:30.675Z,66.43
2023-01-02T05:59:34.505Z,66.37
2023-01-02T06:00:31.620Z,66.63
2023-01-02T06:01:30.655Z,68.46
2023-01-02T06:02:30.640Z,68.06
2023-01-02T06:03:30.599Z,66.91
2023-01-02T06:04:30.626Z,67.82
2023-01-02T06:05:30.528Z,67.35
2023-01-02T06:06:30.517Z,66.49
2023-01-02T06:07:30.493Z,67.17
2023-01-02T06:08:30.486Z,65.95
2023-01-02T06:09:30.497Z,65.33
2023-01-02T06:10:30.432Z,66.46
2023-01-02T06:11:30.429Z,67.68
2023-01-02T06:12:30.415Z,66.73
2023-01-02T06:13:30.390Z,65.58
2023-01-02T06:14:30.398Z,67.66
2023-01-02T06:15:30.352Z,65.81
2023-01-02T06:16:30.393Z,66.13
2023-01-02T06:17:30.313Z,67.46
2023-01-02T06:18:30.304Z,65.78
2023-01-02T06:19:30.330Z,67.99
2023-01-02T06:20:30.276Z,69.50
2023-01-02T06:21:30.257Z,67.37
2023-01-02T06:22:30.245Z,67.36
2023-01-02T06:23:30.233Z,69.14
2023-01-02T06:24:30.292Z,68.76
2023-01-02T06:25:30.197Z,67.62
2023-01-02T06:26:34.996Z,67.22
2023-01-02T06:27:32.172Z,68.49
2023-01-02T06:28:30.136Z,67.37
2023-01-02T06:29:30.154Z,65.90
2023-01-02T06:30:30.167Z,69.10
2023-01-02T06:31:30.245Z,67.74
2023-01-02T06:32:30.070Z,67.96
2023-01-02T06:33:30.053Z,66.72
2023-01-02T06:34:30.055Z,68.20
2023-01-02T06:35:30.031Z,66.29
2023-01-02T06:36:30.014Z,67.12
2023-01-02T06:37:29.978Z,67.31
2023-01-02T06:38:29.996Z,67.51
2023-01-02T06:39:29.992Z,68.66
2023-01-02T06:40:29.940Z,69.40
2023-01-02T06:41:29.929Z,68.45
2023-01-02T06:42:29.916Z,67.04
2023-01-02T06:43:29.886Z,69.07
2023-01-02T06:44:29.919Z,69.10
2023-01-02T06:45:29.913Z,68.10
2023-01-02T06:46:29.845Z,67.02
2023-01-02T06:47:29.809Z,69.18
2023-01-02T06:48:29.804Z,68.99
2023-01-02T06:49:29.814Z,68.15
2023-01-02T06:50:34.885Z,66.28
2023-01-02T06:51:31.757Z,68.48
2023-01-02T06:52:29.732Z,68.92
2023-01-02T06:53:29.725Z,69.74
2023-01-02T06:54:29.738Z,68.21
2023-01-02T06:55:29.696Z,68.48
2023-01-02T06:56:29.665Z,69.03
2023-01-02T06:57:29.674Z,69.51
2023-01-02T06:58:29.624Z,69.73
2023-01-02T06:59:29.674Z,66.85
2023-01-02T07:00:29.608Z,65.51
2023-01-02T07:01:29.673Z,66.42
2023-01-02T07:02:29.695Z,66.44
2023-01-02T07:03:29.558Z,68.63
2023-01-02T07:04:29.568Z,67.62
2023-01-02T07:05:29.507Z,69.25
2023-01-02T07:06:30.501Z,68.87
2023-01-02T07:07:29.509Z,67.00
2023-01-02T07:08:29.487Z,65.38
2023-01-02T07:09:29.495Z,70.25
2023-01-02T07:10:29.487Z,68.54
2023-01-02T07:11:29.427Z,66.42
2023-01-02T07:12:29.418Z,67.33
2023-01-02T07:13:29.449Z,67.98
2023-01-02T07:14:29.385Z,67.36
2023-01-02T07:15:29.387Z,70.90
2023-01-02T07:16:29.372Z,69.30
2023-01-02T07:17:29.319Z,67.22
2023-01-02T07:18:29.373Z,67.77
2023-01-02T07:19:29.344Z,69.26
2023-01-02T07:20:29.394Z,66.84
2023-01-02T07:21:29.274Z,67.83
2023-01-02T07:22:29.228Z,70.23
2023-01-02T07:23:29.268Z,68.78
2023-01-02T07:24:29.196Z,69.07
2023-01-02T07:25:29.229Z,68.35
2023-01-02T07:26:29.184Z,69.54
2023-01-02T07:30:14.768Z,68.56
2023-01-02T07:31:14.790Z,68.44
2023-01-02T07:32:14.697Z,68.11
2023-01-02T07:33:14.765Z,68.17
2023-01-02T07:34:14.796Z,68.55
2023-01-02T07:35:14.680Z,67.83
2023-01-02T07:36:15.810Z,68.64
2023-01-02T07:37:15.778Z,69.40
2023-01-02T07:38:15.763Z,67.89
2023-01-02T07:39:15.750Z,68.69
2023-01-02T07:40:15.761Z,70.11
2023-01-02T07:41:15.798Z,69.22
2023-01-02T07:42:15.715Z,66.88
2023-01-02T07:43:15.680Z,67.37
2023-01-02T07:44:15.734Z,67.11
2023-01-02T07:45:15.689Z,68.19
2023-01-02T07:46:15.659Z,68.35
2023-01-02T07:47:15.620Z,67.94
2023-01-02T07:48:15.582Z,67.84
2023-01-02T07:49:15.573Z,67.77
2023-01-02T07:50:15.597Z,69.89
2023-01-02T07:51:19.698Z,68.49
2023-01-02T07:52:16.520Z,68.92
2023-01-02T07:53:15.509Z,65.95
2023-01-02T07:54:15.477Z,69.07
2023-01-02T07:55:15.502Z,68.99
2023-01-02T07:56:15.468Z,68.30
2023-01-02T07:57:15.439Z,67.42
2023-01-02T07:58:15.427Z,68.73
2023-01-02T07:59:15.461Z,68.44
2023-01-02T08:00:15.439Z,69.68
2023-01-02T08:01:15.661Z,69.01
2023-01-02T08:02:15.516Z,67.80
2023-01-02T08:03:15.326Z,67.06
2023-01-02T08:04:15.345Z,69.89
2023-01-02T08:05:15.326Z,68.67
2023-01-02T08:06:15.365Z,67.56
2023-01-02T08:07:15.302Z,67.86
2023-01-02T08:08:15.247Z,68.81
2023-01-02T08:09:15.248Z,68.54
2023-01-02T08:10:15.245Z,66.87
2023-01-02T08:11:15.194Z,69.11
2023-01-02T08:12:15.166Z,69.06
2023-01-02T08:13:15.175Z,69.34
2023-01-02T08:14:21.586Z,68.25
2023-01-02T08:15:17.153Z,67.66
2023-01-02T08:16:15.239Z,68.38
2023-01-02T08:17:15.099Z,68.52
2023-01-02T08:18:15.073Z,68.09
2023-01-02T08:19:15.060Z,67.90
2023-01-02T08:20:15.068Z,67.29
2023-01-02T08:21:15.014Z,66.28
2023-01-02T08:22:15.000Z,67.78
2023-01-02T08:23:14.986Z,67.30
2023-01-02T08:24:14.964Z,69.52
2023-01-02T08:25:14.995Z,67.95
2023-01-02T08:26:14.932Z,68.28
2023-01-02T08:27:14.943Z,68.01
2023-01-02T08:28:14.914Z,68.11
2023-01-02T08:29:14.900Z,69.82
2023-01-02T08:30:15.016Z,68.21
2023-01-02T08:31:14.912Z,69.29
2023-01-02T08:32:14.857Z,69.65
2023-01-02T08:33:14.836Z,68.20
2023-01-02T08:34:14.808Z,68.58
2023-01-02T08:35:14.850Z,68.39
2023-01-02T08:36:14.851Z,68.94
2023-01-02T08:37:14.781Z,67.44
2023-01-02T08:38:14.751Z,69.50
2023-01-02T08:39:14.724Z,68.19
2023-01-02T08:40:14.744Z,68.49
2023-01-02T08:41:14.765Z,69.25
2023-01-02T08:42:14.670Z,68.96
2023-01-02T08:43:16.278Z,67.41
2023-01-02T08:44:14.638Z,68.08
2023-01-02T08:45:14.674Z,68.30
2023-01-02T08:46:14.654Z,69.03
2023-01-02T08:47:14.586Z,68.71
2023-01-02T08:48:21.362Z,69.23
2023-01-02T08:49:15.548Z,68.22
2023-01-02T08:50:15.581Z,68.22
2023-01-02T08:51:14.520Z,67.20
2023-01-02T08:52:14.497Z,68.45
2023-01-02T08:53:14.495Z,68.07
2023-01-02T08:54:14.482Z,69.56
2023-01-02T08:55:14.508Z,67.73
2023-01-02T08:56:14.450Z,67.92
2023-01-02T08:57:14.422Z,69.34
2023-01-02T08:58:14.419Z,68.22
2023-01-02T08:59:14.393Z,68.87
2023-01-02T09:00:14.377Z,69.01
2023-01-02T09:01:14.449Z,69.33
2023-01-02T09:02:14.610Z,68.69
2023-01-02T09:03:14.356Z,69.96
2023-01-02T09:04:14.315Z,69.32
2023-01-02T09:05:14.515Z,69.01
2023-01-02T09:06:19.712Z,68.27
2023-01-02T09:07:16.276Z,68.36
2023-01-02T09:08:14.242Z,68.56
2023-01-02T09:09:14.249Z,68.52
2023-01-02T09:10:14.280Z,68.34
2023-01-02T09:11:14.239Z,69.03
2023-01-02T09:12:14.172Z,69.40
2023-01-02T09:13:14.155Z,67.79
2023-01-02T09:14:14.177Z,66.67
2023-01-02T09:15:14.117Z,68.05
2023-01-02T09:16:14.200Z,68.89
2023-01-02T09:17:14.099Z,69.21
2023-01-02T09:18:14.085Z,69.59
2023-01-02T09:19:14.098Z,69.30
2023-01-02T09:20:14.046Z,68.25
2023-01-02T09:21:14.112Z,69.64
2023-01-02T09:22:14.034Z,67.64
2023-01-02T09:23:14.014Z,70.19
2023-01-02T09:24:13.988Z,69.96
2023-01-02T09:25:16.488Z,68.41
2023-01-02T09:26:15.018Z,68.40
2023-01-02T09:27:13.955Z,69.13
2023-01-02T09:28:13.914Z,69.59
2023-01-02T09:29:13.905Z,68.42
2023-01-02T09:30:13.894Z,69.40
2023-01-02T09:31:13.966Z,69.64
2023-01-02T09:32:13.849Z,69.83
2023-01-02T09:33:13.838Z,69.38
2023-01-02T09:34:13.836Z,69.87
2023-01-02T09:35:13.804Z,69.23
2023-01-02T09:36:13.821Z,70.17
2023-01-02T09:37:13.774Z,68.99
2023-01-02T09:38:13.760Z,69.65
2023-01-02T09:39:13.744Z,69.08
2023-01-02T09:40:47.544Z,67.78
2023-01-02T09:41:13.725Z,69.52
2023-01-02T09:42:13.709Z,69.66
2023-01-02T09:43:13.672Z,68.46
2023-01-02T09:44:13.656Z,68.05
2023-01-02T09:45:13.642Z,67.50
2023-01-02T09:46:13.743Z,68.70
2023-01-02T09:47:13.617Z,69.42
2023-01-02T09:48:13.665Z,68.70
2023-01-02T09:49:13.578Z,71.02
2023-01-02T09:50:13.568Z,68.32
2023-01-02T09:51:13.568Z,69.13
2023-01-02T09:52:14.525Z,69.21
2023-01-02T09:53:13.511Z,68.75
2023-01-02T09:54:13.491Z,69.09
2023-01-02T09:55:13.480Z,69.31
2023-01-02T09:56:16.488Z,69.31
2023-01-02T09:57:15.460Z,68.12
2023-01-02T09:58:13.503Z,69.20
2023-01-02T09:59:13.415Z,68.27
2023-01-02T10:00:13.393Z,67.12
2023-01-02T10:01:13.429Z,69.57
2023-01-02T10:02:13.358Z,68.87
2023-01-02T10:03:13.538Z,69.09
2023-01-02T10:04:13.340Z,69.61
2023-01-02T10:05:13.319Z,70.32
2023-01-02T10:06:13.330Z,68.25
2023-01-02T10:07:13.274Z,70.32
2023-01-02T10:08:13.267Z,68.41
2023-01-02T10:09:13.240Z,69.61
2023-01-02T10:10:13.251Z,69.32
2023-01-02T10:11:13.240Z,69.69
2023-01-02T10:12:13.181Z,69.88
2023-01-02T10:13:13.174Z,70.55
2023-01-02T10:14:21.128Z,68.46
2023-01-02T10:15:15.141Z,69.34
2023-01-02T10:16:13.193Z,68.54
2023-01-02T10:17:13.104Z,68.19
2023-01-02T10:18:13.097Z,67.32
2023-01-02T10:19:13.070Z,68.49
2023-01-02T10:20:13.057Z,71.02
2023-01-02T10:21:13.064Z,70.55
2023-01-02T10:22:13.022Z,68.18
2023-01-02T10:23:13.011Z,68.94
2023-01-02T10:24:12.994Z,67.45
2023-01-02T10:25:12.985Z,70.33
2023-01-02T10:26:12.993Z,69.26
2023-01-02T10:27:12.958Z,68.27
2023-01-02T10:28:12.919Z,69.66
2023-01-02T10:29:12.944Z,69.74
2023-01-02T10:30:12.888Z,69.24
2023-01-02T10:31:12.983Z,69.32
2023-01-02T10:32:12.854Z,69.35
2023-01-02T10:33:12.839Z,69.62
2023-01-02T10:34:12.825Z,68.92
2023-01-02T10:35:12.822Z,69.99
2023-01-02T10:36:12.824Z,68.73
2023-01-02T10:37:12.776Z,68.81
2023-01-02T10:38:12.775Z,67.26
2023-01-02T10:39:12.757Z,69.02
2023-01-02T10:40:12.745Z,68.72
2023-01-02T10:41:12.748Z,69.55
2023-01-02T10:42:12.705Z,69.27
2023-01-02T10:43:12.700Z,70.58
2023-01-02T10:44:12.711Z,70.48
2023-01-02T10:45:12.670Z,71.14
2023-01-02T10:46:12.713Z,70.11
2023-01-02T10:47:12.633Z,69.72
2023-01-02T10:48:12.600Z,70.24
2023-01-02T10:49:12.595Z,69.53
2023-01-02T10:50:12.567Z,68.40
2023-01-02T10:51:12.594Z,68.98
2023-01-02T10:52:12.533Z,69.58
2023-01-02T10:53:12.524Z,68.68
2023-01-02T10:54:12.495Z,67.26
2023-01-02T10:55:12.485Z,67.91
2023-01-02T10:56:12.501Z,70.62
2023-01-02T10:57:12.449Z,69.59
2023-01-02T10:58:12.433Z,69.46
2023-01-02T10:59:12.417Z,69.43
2023-01-02T11:00:12.407Z,69.96
2023-01-02T11:01:12.530Z,69.67
2023-01-02T11:02:12.511Z,69.18
2023-01-02T11:03:12.401Z,69.27
2023-01-02T11:04:12.335Z,70.08
2023-01-02T11:05:12.387Z,70.72
2023-01-02T11:06:25.971Z,69.42
2023-01-02T11:07:14.302Z,69.38
2023-01-02T11:08:12.282Z,68.30
2023-01-02T11:09:12.314Z,68.85
2023-01-02T11:10:12.248Z,69.92
2023-01-02T11:11:12.258Z,70.91
2023-01-02T11:12:12.229Z,68.80
2023-01-02T11:13:12.193Z,69.65
2023-01-02T11:14:12.165Z,70.34
2023-01-02T11:15:12.151Z,69.18
2023-01-02T11:16:12.159Z,69.45
2023-01-02T11:17:12.165Z,69.33
2023-01-02T11:18:12.108Z,68.39
2023-01-02T11:19:12.124Z,68.58
2023-01-02T11:20:12.062Z,69.85
2023-01-02T11:21:12.056Z,70.86
2023-01-02T11:22:12.092Z,73.04
2023-01-02T11:23:12.045Z,70.36
2023-01-02T11:24:12.011Z,68.73
2023-01-02T11:25:11.983Z,68.81
2023-01-02T11:26:11.970Z,69.15
2023-01-02T11:27:12.003Z,70.84
2023-01-02T11:28:11.929Z,69.51
2023-01-02T11:29:11.917Z,69.57
2023-01-02T11:30:11.899Z,69.86
2023-01-02T11:31:11.941Z,68.96
2023-01-02T11:32:12.046Z,69.29
2023-01-02T11:33:11.870Z,68.29
2023-01-02T11:34:12.835Z,68.70
2023-01-02T11:35:11.821Z,68.05
2023-01-02T11:36:11.841Z,70.02
2023-01-02T11:37:11.822Z,69.51
2023-01-02T11:38:11.786Z,68.72
2023-01-02T11:39:11.754Z,69.72
2023-01-02T11:40:11.754Z,70.63
2023-01-02T11:41:11.723Z,69.73
2023-01-02T11:42:11.784Z,69.76
2023-01-02T11:43:11.686Z,69.57
2023-01-02T11:44:17.153Z,68.93
2023-01-02T11:45:13.657Z,70.15
2023-01-02T11:46:11.671Z,67.38
2023-01-02T11:47:11.664Z,68.76
2023-01-02T11:48:11.611Z,68.28
2023-01-02T11:49:11.609Z,68.41
2023-01-02T11:50:11.651Z,67.98
2023-01-02T11:51:15.878Z,68.10
2023-01-02T11:52:13.580Z,69.07
2023-01-02T11:53:11.573Z,67.29
2023-01-02T11:54:11.512Z,69.34
2023-01-02T11:55:11.500Z,68.80
2023-01-02T11:56:11.479Z,67.83
2023-01-02T11:57:18.456Z,69.62
2023-01-02T11:58:13.447Z,67.78
2023-01-02T11:59:11.435Z,66.73
2023-01-02T12:00:11.412Z,68.17
2023-01-02T12:01:11.400Z,67.63
2023-01-02T12:02:11.603Z,67.63
2023-01-02T12:03:15.315Z,67.18
2023-01-02T12:04:13.340Z,66.77
2023-01-02T12:05:11.335Z,66.68
2023-01-02T12:06:11.306Z,66.07
2023-01-02T12:07:11.350Z,66.81
2023-01-02T12:08:11.293Z,65.62
2023-01-02T12:09:11.319Z,68.37
2023-01-02T12:10:11.383Z,66.94
2023-01-02T12:11:11.309Z,65.84
2023-01-02T12:12:11.396Z,66.85
2023-01-02T12:13:11.345Z,67.45
2023-01-02T12:14:11.182Z,66.68
2023-01-02T12:15:11.156Z,65.27
2023-01-02T12:16:11.166Z,65.84
2023-01-02T12:17:12.149Z,66.71
2023-01-02T12:18:11.112Z,67.43
2023-01-02T12:19:11.100Z,66.26
2023-01-02T12:20:11.077Z,67.83
2023-01-02T12:21:11.070Z,68.99
2023-01-02T12:22:11.171Z,67.68
2023-01-02T12:23:11.136Z,66.56
2023-01-02T12:24:11.016Z,66.72
2023-01-02T12:25:11.054Z,67.74
2023-01-02T12:26:10.975Z,68.50
2023-01-02T12:27:10.986Z,67.52
2023-01-02T12:28:11.018Z,66.96
2023-01-02T12:29:10.924Z,68.72
2023-01-02T12:30:10.919Z,70.29
2023-01-02T12:31:10.910Z,68.66
2023-01-02T12:32:10.981Z,67.48
2023-01-02T12:33:10.872Z,68.06
2023-01-02T12:34:10.871Z,67.66
2023-01-02T12:35:10.828Z,67.14
2023-01-02T12:36:10.827Z,67.20
2023-01-02T12:37:10.833Z,66.47
2023-01-02T12:38:10.782Z,68.69
2023-01-02T12:39:10.771Z,68.68
2023-01-02T12:40:10.755Z,65.99
2023-01-02T12:41:10.807Z,65.66
2023-01-02T12:42:10.769Z,68.51
2023-01-02T12:43:10.713Z,68.33
2023-01-02T12:44:10.672Z,67.95
2023-01-02T12:45:10.678Z,67.54
2023-01-02T12:46:10.703Z,67.91
2023-01-02T12:47:10.693Z,67.85
2023-01-02T12:48:10.647Z,66.59
2023-01-02T12:49:10.601Z,67.84
2023-01-02T12:50:10.602Z,66.11
2023-01-02T12:51:10.571Z,68.08
2023-01-02T12:52:10.574Z,69.23
2023-01-02T12:53:10.575Z,67.57
2023-01-02T12:54:20.021Z,66.80
2023-01-02T12:55:11.510Z,67.89